Terminal Aerodrome Forecast
Issued by NWS

Home | Current Version | Previous Version | Graphics & Text | Print | Product List | Glossary On
Versions: 1 2 3 4 5 6 7 8 9 10 11 12 13 14 15 16 17 18
000
FTUS43 KGRB 031700
TAFCWA
TAF
KCWA 031736Z 0318/0418 18009G15KT P6SM SCT045
     FM032200 22015G24KT P6SM SCT050 BKN090
      TEMPO 0323/0403 33025G35KT 3SM TSRA BKN030CB
     FM040300 33004KT P6SM BKN060
     FM040700 33005KT P6SM SCT060 BKN100
     FM041100 35005KT P6SM BKN100=

USA.gov is the U.S. government's official web portal to all federal, state and local government web resources and services.